sensor_id;sensor_type;location;lat;lon;timestamp;P1;durP1;ratioP1;P2;durP2;ratioP2
9459;SDS011;4768;42.664;23.240;2023-04-24T00:01:38;13.90;;;8.97;;
9459;SDS011;4768;42.664;23.240;2023-04-24T00:04:06;13.97;;;9.17;;
9459;SDS011;4768;42.664;23.240;2023-04-24T00:06:36;13.33;;;8.93;;
9459;SDS011;4768;42.664;23.240;2023-04-24T00:09:03;12.33;;;8.60;;
9459;SDS011;4768;42.664;23.240;2023-04-24T00:11:30;14.47;;;8.90;;
9459;SDS011;4768;42.664;23.240;2023-04-24T00:13:57;13.40;;;8.87;;
9459;SDS011;4768;42.664;23.240;2023-04-24T00:16:24;13.70;;;9.17;;
9459;SDS011;4768;42.664;23.240;2023-04-24T00:18:50;13.23;;;8.43;;
9459;SDS011;4768;42.664;23.240;2023-04-24T00:21:19;11.47;;;8.73;;
9459;SDS011;4768;42.664;23.240;2023-04-24T00:23:46;10.53;;;8.10;;
9459;SDS011;4768;42.664;23.240;2023-04-24T00:26:13;11.07;;;8.30;;
9459;SDS011;4768;42.664;23.240;2023-04-24T00:28:40;11.20;;;7.47;;
9459;SDS011;4768;42.664;23.240;2023-04-24T00:31:07;10.93;;;7.67;;
9459;SDS011;4768;42.664;23.240;2023-04-24T00:33:33;11.73;;;8.17;;
9459;SDS011;4768;42.664;23.240;2023-04-24T00:36:00;10.47;;;7.70;;
9459;SDS011;4768;42.664;23.240;2023-04-24T00:38:28;10.40;;;7.47;;
9459;SDS011;4768;42.664;23.240;2023-04-24T00:40:55;9.70;;;7.60;;
9459;SDS011;4768;42.664;23.240;2023-04-24T00:43:22;9.37;;;7.40;;
9459;SDS011;4768;42.664;23.240;2023-04-24T00:45:48;9.43;;;7.23;;
9459;SDS011;4768;42.664;23.240;2023-04-24T00:48:15;10.80;;;7.53;;
9459;SDS011;4768;42.664;23.240;2023-04-24T00:50:42;11.77;;;8.07;;
9459;SDS011;4768;42.664;23.240;2023-04-24T00:53:09;8.03;;;7.20;;
9459;SDS011;4768;42.664;23.240;2023-04-24T00:55:37;11.10;;;7.37;;
9459;SDS011;4768;42.664;23.240;2023-04-24T00:58:04;12.37;;;8.00;;
9459;SDS011;4768;42.664;23.240;2023-04-24T01:00:31;14.97;;;7.77;;
9459;SDS011;4768;42.664;23.240;2023-04-24T01:02:58;10.63;;;7.90;;
9459;SDS011;4768;42.664;23.240;2023-04-24T01:05:27;10.10;;;8.30;;
9459;SDS011;4768;42.664;23.240;2023-04-24T01:07:54;11.77;;;8.63;;
9459;SDS011;4768;42.664;23.240;2023-04-24T01:10:21;12.43;;;8.83;;
9459;SDS011;4768;42.664;23.240;2023-04-24T01:12:51;11.50;;;7.87;;
9459;SDS011;4768;42.664;23.240;2023-04-24T01:15:19;10.50;;;8.43;;
9459;SDS011;4768;42.664;23.240;2023-04-24T01:17:45;11.63;;;8.87;;
9459;SDS011;4768;42.664;23.240;2023-04-24T01:20:12;14.70;;;9.93;;
9459;SDS011;4768;42.664;23.240;2023-04-24T01:22:42;14.30;;;10.37;;
9459;SDS011;4768;42.664;23.240;2023-04-24T01:25:09;13.10;;;9.40;;
9459;SDS011;4768;42.664;23.240;2023-04-24T01:27:35;16.47;;;10.67;;
9459;SDS011;4768;42.664;23.240;2023-04-24T01:30:02;13.07;;;10.50;;
9459;SDS011;4768;42.664;23.240;2023-04-24T01:32:30;14.43;;;9.93;;
9459;SDS011;4768;42.664;23.240;2023-04-24T01:34:57;17.40;;;10.63;;
9459;SDS011;4768;42.664;23.240;2023-04-24T01:37:24;14.63;;;10.97;;
9459;SDS011;4768;42.664;23.240;2023-04-24T01:39:53;14.60;;;10.80;;
9459;SDS011;4768;42.664;23.240;2023-04-24T01:42:20;15.67;;;11.90;;
9459;SDS011;4768;42.664;23.240;2023-04-24T01:44:47;12.80;;;10.67;;
9459;SDS011;4768;42.664;23.240;2023-04-24T01:47:14;13.37;;;10.33;;
9459;SDS011;4768;42.664;23.240;2023-04-24T01:49:41;14.53;;;11.13;;
9459;SDS011;4768;42.664;23.240;2023-04-24T01:52:08;15.43;;;10.47;;
9459;SDS011;4768;42.664;23.240;2023-04-24T01:54:34;13.93;;;11.07;;
9459;SDS011;4768;42.664;23.240;2023-04-24T01:57:03;14.37;;;11.37;;
9459;SDS011;4768;42.664;23.240;2023-04-24T01:59:30;12.43;;;9.77;;
9459;SDS011;4768;42.664;23.240;2023-04-24T02:01:59;15.70;;;10.43;;
9459;SDS011;4768;42.664;23.240;2023-04-24T02:04:26;12.97;;;9.70;;
9459;SDS011;4768;42.664;23.240;2023-04-24T02:06:53;19.47;;;9.57;;
9459;SDS011;4768;42.664;23.240;2023-04-24T02:09:20;14.83;;;9.67;;
9459;SDS011;4768;42.664;23.240;2023-04-24T02:11:46;14.33;;;9.20;;
9459;SDS011;4768;42.664;23.240;2023-04-24T02:14:14;16.30;;;9.43;;
9459;SDS011;4768;42.664;23.240;2023-04-24T02:16:41;12.10;;;9.93;;
9459;SDS011;4768;42.664;23.240;2023-04-24T02:19:08;13.30;;;10.07;;
9459;SDS011;4768;42.664;23.240;2023-04-24T02:21:36;12.27;;;10.07;;
9459;SDS011;4768;42.664;23.240;2023-04-24T02:24:02;14.40;;;10.83;;
9459;SDS011;4768;42.664;23.240;2023-04-24T02:26:29;14.93;;;10.47;;
9459;SDS011;4768;42.664;23.240;2023-04-24T02:28:56;13.93;;;10.37;;
9459;SDS011;4768;42.664;23.240;2023-04-24T02:31:25;11.63;;;9.37;;
9459;SDS011;4768;42.664;23.240;2023-04-24T02:33:51;11.43;;;9.00;;
9459;SDS011;4768;42.664;23.240;2023-04-24T02:36:18;15.03;;;8.90;;
9459;SDS011;4768;42.664;23.240;2023-04-24T02:38:45;13.70;;;9.57;;
9459;SDS011;4768;42.664;23.240;2023-04-24T02:41:11;13.37;;;9.50;;
9459;SDS011;4768;42.664;23.240;2023-04-24T02:43:38;17.83;;;10.47;;
9459;SDS011;4768;42.664;23.240;2023-04-24T02:46:05;11.07;;;8.80;;
9459;SDS011;4768;42.664;23.240;2023-04-24T02:48:33;10.27;;;8.93;;
9459;SDS011;4768;42.664;23.240;2023-04-24T02:51:00;34.57;;;16.90;;
9459;SDS011;4768;42.664;23.240;2023-04-24T02:53:26;15.63;;;9.77;;
9459;SDS011;4768;42.664;23.240;2023-04-24T02:55:54;22.23;;;12.53;;
9459;SDS011;4768;42.664;23.240;2023-04-24T02:58:21;13.83;;;8.77;;
9459;SDS011;4768;42.664;23.240;2023-04-24T03:00:48;12.60;;;9.10;;
9459;SDS011;4768;42.664;23.240;2023-04-24T03:03:15;12.00;;;8.50;;
9459;SDS011;4768;42.664;23.240;2023-04-24T03:05:43;11.27;;;8.43;;
9459;SDS011;4768;42.664;23.240;2023-04-24T03:08:09;14.87;;;9.17;;
9459;SDS011;4768;42.664;23.240;2023-04-24T03:10:36;26.87;;;10.77;;
9459;SDS011;4768;42.664;23.240;2023-04-24T03:13:03;15.93;;;9.03;;
9459;SDS011;4768;42.664;23.240;2023-04-24T03:15:30;24.50;;;11.90;;
9459;SDS011;4768;42.664;23.240;2023-04-24T03:17:56;15.10;;;9.50;;
9459;SDS011;4768;42.664;23.240;2023-04-24T03:20:23;18.90;;;9.50;;
9459;SDS011;4768;42.664;23.240;2023-04-24T03:22:52;10.67;;;8.07;;
9459;SDS011;4768;42.664;23.240;2023-04-24T03:25:18;13.30;;;8.23;;
9459;SDS011;4768;42.664;23.240;2023-04-24T03:27:45;13.47;;;9.13;;
9459;SDS011;4768;42.664;23.240;2023-04-24T03:30:12;8.93;;;7.80;;
9459;SDS011;4768;42.664;23.240;2023-04-24T03:32:39;11.50;;;8.30;;
9459;SDS011;4768;42.664;23.240;2023-04-24T03:35:06;12.33;;;9.00;;
9459;SDS011;4768;42.664;23.240;2023-04-24T03:37:33;10.70;;;8.37;;
9459;SDS011;4768;42.664;23.240;2023-04-24T03:40:01;33.63;;;23.67;;
9459;SDS011;4768;42.664;23.240;2023-04-24T03:42:28;12.73;;;8.90;;
9459;SDS011;4768;42.664;23.240;2023-04-24T03:44:55;10.60;;;8.23;;
9459;SDS011;4768;42.664;23.240;2023-04-24T03:47:22;12.27;;;8.33;;
9459;SDS011;4768;42.664;23.240;2023-04-24T03:49:49;10.03;;;8.03;;
9459;SDS011;4768;42.664;23.240;2023-04-24T03:52:16;10.57;;;7.50;;
9459;SDS011;4768;42.664;23.240;2023-04-24T03:54:42;12.33;;;8.37;;
9459;SDS011;4768;42.664;23.240;2023-04-24T03:57:10;10.63;;;7.60;;
9459;SDS011;4768;42.664;23.240;2023-04-24T03:59:37;9.13;;;7.40;;
9459;SDS011;4768;42.664;23.240;2023-04-24T04:02:04;10.33;;;7.63;;
9459;SDS011;4768;42.664;23.240;2023-04-24T04:04:31;9.80;;;7.07;;
9459;SDS011;4768;42.664;23.240;2023-04-24T04:06:57;7.97;;;7.03;;
9459;SDS011;4768;42.664;23.240;2023-04-24T04:09:26;12.07;;;9.13;;
9459;SDS011;4768;42.664;23.240;2023-04-24T04:11:52;12.50;;;9.50;;
9459;SDS011;4768;42.664;23.240;2023-04-24T04:14:21;11.67;;;8.13;;
9459;SDS011;4768;42.664;23.240;2023-04-24T04:16:48;16.70;;;9.40;;
9459;SDS011;4768;42.664;23.240;2023-04-24T04:19:15;11.00;;;8.10;;
9459;SDS011;4768;42.664;23.240;2023-04-24T04:21:41;11.30;;;8.13;;
9459;SDS011;4768;42.664;23.240;2023-04-24T04:24:10;10.57;;;8.07;;
9459;SDS011;4768;42.664;23.240;2023-04-24T04:26:37;11.20;;;9.37;;
9459;SDS011;4768;42.664;23.240;2023-04-24T04:29:05;9.50;;;8.33;;
9459;SDS011;4768;42.664;23.240;2023-04-24T04:31:33;10.77;;;8.20;;
9459;SDS011;4768;42.664;23.240;2023-04-24T04:34:00;13.07;;;8.77;;
9459;SDS011;4768;42.664;23.240;2023-04-24T04:36:27;10.17;;;7.93;;
9459;SDS011;4768;42.664;23.240;2023-04-24T04:38:54;14.33;;;7.87;;
9459;SDS011;4768;42.664;23.240;2023-04-24T04:41:21;10.37;;;8.53;;
9459;SDS011;4768;42.664;23.240;2023-04-24T04:43:48;23.90;;;11.87;;
9459;SDS011;4768;42.664;23.240;2023-04-24T04:46:15;13.77;;;8.40;;
9459;SDS011;4768;42.664;23.240;2023-04-24T04:48:44;14.70;;;8.90;;
9459;SDS011;4768;42.664;23.240;2023-04-24T04:51:10;10.50;;;8.70;;
9459;SDS011;4768;42.664;23.240;2023-04-24T04:53:37;12.40;;;9.53;;
9459;SDS011;4768;42.664;23.240;2023-04-24T04:56:04;26.03;;;17.43;;
9459;SDS011;4768;42.664;23.240;2023-04-24T04:58:31;13.23;;;8.93;;
9459;SDS011;4768;42.664;23.240;2023-04-24T05:00:58;17.57;;;12.50;;
9459;SDS011;4768;42.664;23.240;2023-04-24T05:03:24;16.87;;;12.47;;
9459;SDS011;4768;42.664;23.240;2023-04-24T05:05:53;18.03;;;10.17;;
9459;SDS011;4768;42.664;23.240;2023-04-24T05:08:19;14.40;;;10.10;;
9459;SDS011;4768;42.664;23.240;2023-04-24T05:10:46;11.93;;;8.80;;
9459;SDS011;4768;42.664;23.240;2023-04-24T05:13:13;12.60;;;8.37;;
9459;SDS011;4768;42.664;23.240;2023-04-24T05:15:40;11.53;;;8.53;;
9459;SDS011;4768;42.664;23.240;2023-04-24T05:18:06;15.93;;;8.50;;
9459;SDS011;4768;42.664;23.240;2023-04-24T05:20:33;12.43;;;9.07;;
9459;SDS011;4768;42.664;23.240;2023-04-24T05:23:01;14.73;;;8.80;;
9459;SDS011;4768;42.664;23.240;2023-04-24T05:25:28;12.57;;;8.77;;
9459;SDS011;4768;42.664;23.240;2023-04-24T05:27:57;14.63;;;9.07;;
9459;SDS011;4768;42.664;23.240;2023-04-24T05:30:24;15.43;;;8.20;;
9459;SDS011;4768;42.664;23.240;2023-04-24T05:32:50;18.03;;;8.00;;
9459;SDS011;4768;42.664;23.240;2023-04-24T05:35:17;16.60;;;8.30;;
9459;SDS011;4768;42.664;23.240;2023-04-24T05:37:44;14.00;;;8.90;;
9459;SDS011;4768;42.664;23.240;2023-04-24T05:40:12;11.57;;;8.30;;
9459;SDS011;4768;42.664;23.240;2023-04-24T05:42:39;13.17;;;9.13;;
9459;SDS011;4768;42.664;23.240;2023-04-24T05:45:06;17.40;;;9.47;;
9459;SDS011;4768;42.664;23.240;2023-04-24T05:47:34;13.20;;;9.70;;
9459;SDS011;4768;42.664;23.240;2023-04-24T05:50:01;11.63;;;9.30;;
9459;SDS011;4768;42.664;23.240;2023-04-24T05:52:27;11.43;;;9.07;;
9459;SDS011;4768;42.664;23.240;2023-04-24T05:54:54;11.53;;;9.13;;
9459;SDS011;4768;42.664;23.240;2023-04-24T05:57:22;15.43;;;9.10;;
9459;SDS011;4768;42.664;23.240;2023-04-24T05:59:49;15.50;;;7.63;;
9459;SDS011;4768;42.664;23.240;2023-04-24T06:02:16;9.37;;;6.07;;
9459;SDS011;4768;42.664;23.240;2023-04-24T06:04:43;15.83;;;6.27;;
9459;SDS011;4768;42.664;23.240;2023-04-24T06:07:11;9.70;;;6.70;;
9459;SDS011;4768;42.664;23.240;2023-04-24T06:09:38;9.57;;;6.83;;
9459;SDS011;4768;42.664;23.240;2023-04-24T06:12:04;10.07;;;6.23;;
9459;SDS011;4768;42.664;23.240;2023-04-24T06:14:34;7.47;;;6.13;;
9459;SDS011;4768;42.664;23.240;2023-04-24T06:17:01;15.70;;;6.57;;
9459;SDS011;4768;42.664;23.240;2023-04-24T06:19:28;12.40;;;6.63;;
9459;SDS011;4768;42.664;23.240;2023-04-24T06:21:54;12.83;;;6.40;;
9459;SDS011;4768;42.664;23.240;2023-04-24T06:24:21;8.20;;;6.40;;
9459;SDS011;4768;42.664;23.240;2023-04-24T06:26:48;12.37;;;7.07;;
9459;SDS011;4768;42.664;23.240;2023-04-24T06:29:14;12.47;;;7.27;;
9459;SDS011;4768;42.664;23.240;2023-04-24T06:31:43;10.57;;;6.60;;
9459;SDS011;4768;42.664;23.240;2023-04-24T06:34:09;9.13;;;6.80;;
9459;SDS011;4768;42.664;23.240;2023-04-24T06:36:36;7.70;;;6.60;;
9459;SDS011;4768;42.664;23.240;2023-04-24T06:39:03;13.67;;;7.80;;
9459;SDS011;4768;42.664;23.240;2023-04-24T06:41:30;17.57;;;8.53;;
9459;SDS011;4768;42.664;23.240;2023-04-24T06:43:57;11.33;;;8.33;;
9459;SDS011;4768;42.664;23.240;2023-04-24T06:46:23;13.47;;;8.13;;
9459;SDS011;4768;42.664;23.240;2023-04-24T06:48:52;18.27;;;8.90;;
9459;SDS011;4768;42.664;23.240;2023-04-24T06:51:21;11.17;;;7.83;;
9459;SDS011;4768;42.664;23.240;2023-04-24T06:53:49;10.83;;;7.83;;
9459;SDS011;4768;42.664;23.240;2023-04-24T06:56:16;17.20;;;7.93;;
9459;SDS011;4768;42.664;23.240;2023-04-24T06:58:42;9.30;;;7.40;;
9459;SDS011;4768;42.664;23.240;2023-04-24T07:01:10;12.60;;;7.80;;
9459;SDS011;4768;42.664;23.240;2023-04-24T07:03:37;12.03;;;7.90;;
9459;SDS011;4768;42.664;23.240;2023-04-24T07:06:05;12.03;;;7.80;;
9459;SDS011;4768;42.664;23.240;2023-04-24T07:08:32;12.63;;;7.40;;
9459;SDS011;4768;42.664;23.240;2023-04-24T07:10:59;14.03;;;7.83;;
9459;SDS011;4768;42.664;23.240;2023-04-24T07:13:26;11.37;;;7.83;;
9459;SDS011;4768;42.664;23.240;2023-04-24T07:15:53;13.30;;;6.47;;
9459;SDS011;4768;42.664;23.240;2023-04-24T07:18:21;9.23;;;6.70;;
9459;SDS011;4768;42.664;23.240;2023-04-24T07:20:48;7.90;;;6.70;;
9459;SDS011;4768;42.664;23.240;2023-04-24T07:23:16;9.73;;;6.30;;
9459;SDS011;4768;42.664;23.240;2023-04-24T07:25:43;10.13;;;6.63;;
9459;SDS011;4768;42.664;23.240;2023-04-24T07:28:10;13.57;;;6.77;;
9459;SDS011;4768;42.664;23.240;2023-04-24T07:30:37;10.33;;;6.97;;
9459;SDS011;4768;42.664;23.240;2023-04-24T07:33:04;13.07;;;6.60;;
9459;SDS011;4768;42.664;23.240;2023-04-24T07:35:32;8.77;;;7.30;;
9459;SDS011;4768;42.664;23.240;2023-04-24T07:37:59;11.77;;;7.60;;
9459;SDS011;4768;42.664;23.240;2023-04-24T07:40:27;13.33;;;7.57;;
9459;SDS011;4768;42.664;23.240;2023-04-24T07:42:54;14.40;;;7.30;;
9459;SDS011;4768;42.664;23.240;2023-04-24T07:45:21;10.93;;;6.43;;
9459;SDS011;4768;42.664;23.240;2023-04-24T07:47:48;13.60;;;7.57;;
9459;SDS011;4768;42.664;23.240;2023-04-24T07:50:16;8.23;;;6.97;;
9459;SDS011;4768;42.664;23.240;2023-04-24T07:52:42;10.93;;;7.27;;
9459;SDS011;4768;42.664;23.240;2023-04-24T07:55:09;8.90;;;6.53;;
9459;SDS011;4768;42.664;23.240;2023-04-24T07:57:37;6.93;;;6.20;;
9459;SDS011;4768;42.664;23.240;2023-04-24T08:00:05;9.33;;;6.40;;
9459;SDS011;4768;42.664;23.240;2023-04-24T08:02:33;9.17;;;6.40;;
9459;SDS011;4768;42.664;23.240;2023-04-24T08:05:00;10.13;;;6.33;;
9459;SDS011;4768;42.664;23.240;2023-04-24T08:07:28;8.60;;;6.37;;
9459;SDS011;4768;42.664;23.240;2023-04-24T08:09:55;9.90;;;6.10;;
9459;SDS011;4768;42.664;23.240;2023-04-24T08:12:22;10.13;;;6.60;;
9459;SDS011;4768;42.664;23.240;2023-04-24T08:14:50;9.50;;;7.07;;
9459;SDS011;4768;42.664;23.240;2023-04-24T08:17:17;8.27;;;6.70;;
9459;SDS011;4768;42.664;23.240;2023-04-24T08:19:44;8.53;;;6.00;;
9459;SDS011;4768;42.664;23.240;2023-04-24T08:22:13;9.37;;;6.57;;
9459;SDS011;4768;42.664;23.240;2023-04-24T08:24:40;9.63;;;6.47;;
9459;SDS011;4768;42.664;23.240;2023-04-24T08:27:07;7.33;;;6.33;;
9459;SDS011;4768;42.664;23.240;2023-04-24T08:29:34;10.40;;;6.00;;
9459;SDS011;4768;42.664;23.240;2023-04-24T08:32:02;12.13;;;6.33;;
9459;SDS011;4768;42.664;23.240;2023-04-24T08:34:29;11.02;;;5.75;;
9459;SDS011;4768;42.664;23.240;2023-04-24T08:36:56;8.02;;;6.47;;
9459;SDS011;4768;42.664;23.240;2023-04-24T08:39:23;6.80;;;6.10;;
9459;SDS011;4768;42.664;23.240;2023-04-24T08:41:49;11.10;;;6.17;;
9459;SDS011;4768;42.664;23.240;2023-04-24T08:44:18;10.80;;;6.67;;
9459;SDS011;4768;42.664;23.240;2023-04-24T08:46:46;11.63;;;7.43;;
9459;SDS011;4768;42.664;23.240;2023-04-24T08:49:15;13.10;;;7.27;;
9459;SDS011;4768;42.664;23.240;2023-04-24T08:51:42;9.07;;;6.13;;
9459;SDS011;4768;42.664;23.240;2023-04-24T08:54:09;11.17;;;6.30;;
9459;SDS011;4768;42.664;23.240;2023-04-24T08:56:38;12.43;;;7.33;;
9459;SDS011;4768;42.664;23.240;2023-04-24T08:59:09;13.33;;;6.57;;
9459;SDS011;4768;42.664;23.240;2023-04-24T09:01:37;12.60;;;6.13;;
9459;SDS011;4768;42.664;23.240;2023-04-24T09:04:04;7.87;;;5.70;;
9459;SDS011;4768;42.664;23.240;2023-04-24T09:06:36;8.03;;;5.63;;
9459;SDS011;4768;42.664;23.240;2023-04-24T09:09:03;13.50;;;6.13;;
9459;SDS011;4768;42.664;23.240;2023-04-24T09:11:30;11.40;;;6.70;;
9459;SDS011;4768;42.664;23.240;2023-04-24T09:13:58;9.87;;;6.03;;
9459;SDS011;4768;42.664;23.240;2023-04-24T09:16:25;11.20;;;6.20;;
9459;SDS011;4768;42.664;23.240;2023-04-24T09:18:52;8.00;;;5.87;;
9459;SDS011;4768;42.664;23.240;2023-04-24T09:21:20;11.47;;;6.50;;
9459;SDS011;4768;42.664;23.240;2023-04-24T09:23:49;7.93;;;5.63;;
9459;SDS011;4768;42.664;23.240;2023-04-24T09:26:24;11.70;;;5.90;;
9459;SDS011;4768;42.664;23.240;2023-04-24T09:28:50;13.57;;;6.13;;
9459;SDS011;4768;42.664;23.240;2023-04-24T09:31:18;7.47;;;5.77;;
9459;SDS011;4768;42.664;23.240;2023-04-24T09:33:53;10.63;;;5.27;;
9459;SDS011;4768;42.664;23.240;2023-04-24T09:36:26;7.63;;;4.93;;
9459;SDS011;4768;42.664;23.240;2023-04-24T09:38:58;10.60;;;5.47;;
9459;SDS011;4768;42.664;23.240;2023-04-24T09:41:26;8.83;;;5.47;;
9459;SDS011;4768;42.664;23.240;2023-04-24T09:43:54;9.23;;;5.40;;
9459;SDS011;4768;42.664;23.240;2023-04-24T09:46:28;8.17;;;5.13;;
9459;SDS011;4768;42.664;23.240;2023-04-24T09:48:56;6.93;;;5.63;;
9459;SDS011;4768;42.664;23.240;2023-04-24T09:51:33;8.10;;;5.27;;
9459;SDS011;4768;42.664;23.240;2023-04-24T09:54:03;9.50;;;5.13;;
9459;SDS011;4768;42.664;23.240;2023-04-24T09:56:32;10.53;;;4.73;;
9459;SDS011;4768;42.664;23.240;2023-04-24T09:59:05;10.57;;;3.33;;
9459;SDS011;4768;42.664;23.240;2023-04-24T10:01:32;10.67;;;3.00;;
9459;SDS011;4768;42.664;23.240;2023-04-24T10:03:59;3.23;;;2.93;;
9459;SDS011;4768;42.664;23.240;2023-04-24T10:06:31;4.67;;;3.20;;
9459;SDS011;4768;42.664;23.240;2023-04-24T10:08:59;5.90;;;2.90;;
9459;SDS011;4768;42.664;23.240;2023-04-24T10:11:28;4.23;;;2.90;;
9459;SDS011;4768;42.664;23.240;2023-04-24T10:13:55;4.43;;;3.10;;
9459;SDS011;4768;42.664;23.240;2023-04-24T10:16:23;5.13;;;2.90;;
9459;SDS011;4768;42.664;23.240;2023-04-24T10:18:52;8.07;;;3.00;;
9459;SDS011;4768;42.664;23.240;2023-04-24T10:21:19;2.77;;;2.50;;
9459;SDS011;4768;42.664;23.240;2023-04-24T10:23:46;7.97;;;2.83;;
9459;SDS011;4768;42.664;23.240;2023-04-24T10:26:15;5.57;;;3.20;;
9459;SDS011;4768;42.664;23.240;2023-04-24T10:28:46;3.50;;;2.63;;
9459;SDS011;4768;42.664;23.240;2023-04-24T10:31:13;6.83;;;2.87;;
9459;SDS011;4768;42.664;23.240;2023-04-24T10:33:41;5.77;;;3.03;;
9459;SDS011;4768;42.664;23.240;2023-04-24T10:36:10;4.00;;;2.53;;
9459;SDS011;4768;42.664;23.240;2023-04-24T10:38:39;5.10;;;2.83;;
9459;SDS011;4768;42.664;23.240;2023-04-24T10:41:08;3.73;;;2.77;;
9459;SDS011;4768;42.664;23.240;2023-04-24T10:43:41;3.27;;;2.70;;
9459;SDS011;4768;42.664;23.240;2023-04-24T10:46:10;5.60;;;3.00;;
9459;SDS011;4768;42.664;23.240;2023-04-24T10:48:41;3.80;;;3.07;;
9459;SDS011;4768;42.664;23.240;2023-04-24T10:51:13;5.27;;;2.97;;
9459;SDS011;4768;42.664;23.240;2023-04-24T10:53:41;3.20;;;2.87;;
9459;SDS011;4768;42.664;23.240;2023-04-24T10:56:08;5.17;;;2.77;;
9459;SDS011;4768;42.664;23.240;2023-04-24T10:58:36;3.40;;;3.10;;
9459;SDS011;4768;42.664;23.240;2023-04-24T11:01:05;4.20;;;3.17;;
9459;SDS011;4768;42.664;23.240;2023-04-24T11:03:34;5.47;;;2.90;;
9459;SDS011;4768;42.664;23.240;2023-04-24T11:06:02;7.03;;;2.90;;
9459;SDS011;4768;42.664;23.240;2023-04-24T11:08:31;4.17;;;3.00;;
9459;SDS011;4768;42.664;23.240;2023-04-24T11:11:03;7.10;;;3.13;;
9459;SDS011;4768;42.664;23.240;2023-04-24T11:16:34;4.67;;;3.40;;
9459;SDS011;4768;42.664;23.240;2023-04-24T11:21:55;4.20;;;3.80;;
9459;SDS011;4768;42.664;23.240;2023-04-24T11:24:26;4.33;;;3.03;;
9459;SDS011;4768;42.664;23.240;2023-04-24T11:26:55;4.00;;;3.57;;
9459;SDS011;4768;42.664;23.240;2023-04-24T11:29:24;4.70;;;3.10;;
9459;SDS011;4768;42.664;23.240;2023-04-24T11:32:13;5.83;;;3.90;;
9459;SDS011;4768;42.664;23.240;2023-04-24T11:34:45;7.83;;;5.00;;
9459;SDS011;4768;42.664;23.240;2023-04-24T11:37:13;5.33;;;4.83;;
9459;SDS011;4768;42.664;23.240;2023-04-24T11:39:40;9.37;;;6.27;;
9459;SDS011;4768;42.664;23.240;2023-04-24T11:42:07;8.00;;;6.30;;
9459;SDS011;4768;42.664;23.240;2023-04-24T11:44:35;9.23;;;5.93;;
9459;SDS011;4768;42.664;23.240;2023-04-24T11:47:02;8.30;;;5.70;;
9459;SDS011;4768;42.664;23.240;2023-04-24T11:49:29;6.60;;;4.83;;
9459;SDS011;4768;42.664;23.240;2023-04-24T11:51:57;7.37;;;5.77;;
9459;SDS011;4768;42.664;23.240;2023-04-24T11:54:25;8.37;;;5.20;;
9459;SDS011;4768;42.664;23.240;2023-04-24T11:56:52;9.23;;;4.47;;
9459;SDS011;4768;42.664;23.240;2023-04-24T11:59:19;5.47;;;3.80;;
9459;SDS011;4768;42.664;23.240;2023-04-24T12:01:46;8.00;;;4.10;;
9459;SDS011;4768;42.664;23.240;2023-04-24T12:04:14;5.13;;;3.60;;
9459;SDS011;4768;42.664;23.240;2023-04-24T12:09:27;5.07;;;3.40;;
9459;SDS011;4768;42.664;23.240;2023-04-24T12:11:54;8.63;;;4.30;;
9459;SDS011;4768;42.664;23.240;2023-04-24T12:14:23;3.80;;;3.43;;
9459;SDS011;4768;42.664;23.240;2023-04-24T12:16:50;5.33;;;2.80;;
9459;SDS011;4768;42.664;23.240;2023-04-24T12:19:20;4.20;;;3.27;;
9459;SDS011;4768;42.664;23.240;2023-04-24T12:21:58;5.17;;;3.70;;
9459;SDS011;4768;42.664;23.240;2023-04-24T12:24:27;3.87;;;3.40;;
9459;SDS011;4768;42.664;23.240;2023-04-24T12:26:54;21.07;;;15.40;;
9459;SDS011;4768;42.664;23.240;2023-04-24T12:29:21;9.23;;;4.13;;
9459;SDS011;4768;42.664;23.240;2023-04-24T12:31:49;4.30;;;3.27;;
9459;SDS011;4768;42.664;23.240;2023-04-24T12:34:17;6.67;;;3.50;;
9459;SDS011;4768;42.664;23.240;2023-04-24T12:36:45;4.10;;;3.80;;
9459;SDS011;4768;42.664;23.240;2023-04-24T12:39:15;4.60;;;2.90;;
9459;SDS011;4768;42.664;23.240;2023-04-24T12:41:50;3.67;;;3.07;;
9459;SDS011;4768;42.664;23.240;2023-04-24T12:44:17;7.47;;;3.93;;
9459;SDS011;4768;42.664;23.240;2023-04-24T12:46:44;4.63;;;3.63;;
9459;SDS011;4768;42.664;23.240;2023-04-24T12:49:11;5.80;;;3.80;;
9459;SDS011;4768;42.664;23.240;2023-04-24T12:51:37;4.73;;;3.67;;
9459;SDS011;4768;42.664;23.240;2023-04-24T12:54:04;3.73;;;3.10;;
9459;SDS011;4768;42.664;23.240;2023-04-24T12:56:32;3.70;;;3.40;;
9459;SDS011;4768;42.664;23.240;2023-04-24T12:59:01;3.60;;;3.30;;
9459;SDS011;4768;42.664;23.240;2023-04-24T13:01:28;6.30;;;3.93;;
9459;SDS011;4768;42.664;23.240;2023-04-24T13:03:55;6.87;;;3.30;;
9459;SDS011;4768;42.664;23.240;2023-04-24T13:06:21;4.33;;;3.20;;
9459;SDS011;4768;42.664;23.240;2023-04-24T13:08:48;3.57;;;3.10;;
9459;SDS011;4768;42.664;23.240;2023-04-24T13:11:16;3.13;;;2.80;;
9459;SDS011;4768;42.664;23.240;2023-04-24T13:13:44;3.13;;;2.87;;
9459;SDS011;4768;42.664;23.240;2023-04-24T13:16:11;4.47;;;3.10;;
9459;SDS011;4768;42.664;23.240;2023-04-24T13:18:38;5.83;;;3.37;;
9459;SDS011;4768;42.664;23.240;2023-04-24T13:21:05;8.10;;;3.10;;
9459;SDS011;4768;42.664;23.240;2023-04-24T13:23:31;6.07;;;2.80;;
9459;SDS011;4768;42.664;23.240;2023-04-24T13:25:58;4.07;;;2.93;;
9459;SDS011;4768;42.664;23.240;2023-04-24T13:28:26;4.43;;;3.20;;
9459;SDS011;4768;42.664;23.240;2023-04-24T13:30:56;5.53;;;3.00;;
9459;SDS011;4768;42.664;23.240;2023-04-24T13:33:22;4.43;;;3.03;;
9459;SDS011;4768;42.664;23.240;2023-04-24T13:35:49;4.53;;;2.77;;
9459;SDS011;4768;42.664;23.240;2023-04-24T13:38:16;4.40;;;2.90;;
9459;SDS011;4768;42.664;23.240;2023-04-24T13:40:46;2.90;;;2.60;;
9459;SDS011;4768;42.664;23.240;2023-04-24T13:43:13;4.03;;;3.10;;
9459;SDS011;4768;42.664;23.240;2023-04-24T13:45:40;4.00;;;3.00;;
9459;SDS011;4768;42.664;23.240;2023-04-24T13:48:08;5.13;;;3.07;;
9459;SDS011;4768;42.664;23.240;2023-04-24T13:50:35;4.60;;;2.67;;
9459;SDS011;4768;42.664;23.240;2023-04-24T13:53:02;4.27;;;2.90;;
9459;SDS011;4768;42.664;23.240;2023-04-24T13:55:29;3.10;;;2.80;;
9459;SDS011;4768;42.664;23.240;2023-04-24T13:57:56;3.57;;;3.13;;
9459;SDS011;4768;42.664;23.240;2023-04-24T14:00:22;9.13;;;3.37;;
9459;SDS011;4768;42.664;23.240;2023-04-24T14:02:49;7.27;;;3.40;;
9459;SDS011;4768;42.664;23.240;2023-04-24T14:05:17;6.07;;;3.40;;
9459;SDS011;4768;42.664;23.240;2023-04-24T14:07:46;4.97;;;2.63;;
9459;SDS011;4768;42.664;23.240;2023-04-24T14:10:14;2.70;;;2.50;;
9459;SDS011;4768;42.664;23.240;2023-04-24T14:12:41;4.30;;;2.83;;
9459;SDS011;4768;42.664;23.240;2023-04-24T14:15:08;5.30;;;3.30;;
9459;SDS011;4768;42.664;23.240;2023-04-24T14:17:35;5.07;;;2.93;;
9459;SDS011;4768;42.664;23.240;2023-04-24T14:20:02;3.17;;;2.63;;
9459;SDS011;4768;42.664;23.240;2023-04-24T14:22:31;3.37;;;2.50;;
9459;SDS011;4768;42.664;23.240;2023-04-24T14:24:57;3.33;;;2.67;;
9459;SDS011;4768;42.664;23.240;2023-04-24T14:27:24;3.17;;;2.83;;
9459;SDS011;4768;42.664;23.240;2023-04-24T14:29:52;5.83;;;3.33;;
9459;SDS011;4768;42.664;23.240;2023-04-24T14:32:19;4.07;;;2.70;;
9459;SDS011;4768;42.664;23.240;2023-04-24T14:34:45;4.47;;;2.93;;
9459;SDS011;4768;42.664;23.240;2023-04-24T14:37:12;4.57;;;2.87;;
9459;SDS011;4768;42.664;23.240;2023-04-24T14:39:40;3.37;;;2.63;;
9459;SDS011;4768;42.664;23.240;2023-04-24T14:42:07;4.40;;;2.67;;
9459;SDS011;4768;42.664;23.240;2023-04-24T14:44:34;4.33;;;3.00;;
9459;SDS011;4768;42.664;23.240;2023-04-24T14:47:00;6.50;;;3.10;;
9459;SDS011;4768;42.664;23.240;2023-04-24T14:49:27;8.43;;;3.20;;
9459;SDS011;4768;42.664;23.240;2023-04-24T14:51:54;5.50;;;2.70;;
9459;SDS011;4768;42.664;23.240;2023-04-24T14:54:21;3.03;;;2.70;;
9459;SDS011;4768;42.664;23.240;2023-04-24T14:56:50;5.63;;;3.60;;
9459;SDS011;4768;42.664;23.240;2023-04-24T14:59:17;5.60;;;3.67;;
9459;SDS011;4768;42.664;23.240;2023-04-24T15:01:43;5.17;;;3.20;;
9459;SDS011;4768;42.664;23.240;2023-04-24T15:04:10;23.47;;;7.10;;